Terminal Aerodrome Forecast
Issued by NWS

Home | Current Version | Previous Version | Text Only | Print | Product List | Glossary On
Versions: 1 2 3 4 5 6 7 8 9 10 11 12 13 14 15 16 17 18 19 20 21 22 23 24 25 26 27 28 29 30 31 32 33 34 35 36
000
FTUS45 KPSR 291127
TAFIWA
TAF
KIWA 291127Z 2912/3012 15006KT P6SM -SHRA BKN100 BKN150
     FM291500 15006KT P6SM SCT100 BKN150
     FM291800 28008KT P6SM SCT100 BKN200
     FM300200 34015G25KT P6SM FEW080 BKN100 BKN250
     FM300400 29010KT P6SM SCT100 BKN200
      AMD LTD TO CLD VIS AND WIND TIL 291300=

USA.gov is the U.S. government's official web portal to all federal, state and local government web resources and services.